Boston University, Massachusetts
Current Conditions -  °F | °C
As of 11:54 PM on Monday 20 Oct 2014 (Local Time) from KBOS Reporting Station
Clear Clear  
Wind Chill: 51°   Ceiling: Unl
Heat Index: 51°   Visibility: 10mi
Dew Point: 41°   Wind: 5mph
Humidity: 68%   Direction: 180°S
Pressure: 30.01"   Gusts: NA
Location:  42.3469°N, 71.1025°W
Report Text: KBOS 210354Z 18004KT 10SM CLR 11/05 A3001 RMK AO2 SLP161 T01060050
Loading
Personal Weather Stations






























Interactive Weather Map
Tropical Storm Tracking
New forecast layout! Learn more

10-Day Weather Forecast

Advertisements
Track Severe Weather on mobile